WetterOnline ( http://www.wetteronline.de )

Wetter aktuell Altusried

Aktuelles Wetter: Kempten (705m)

6-stündlich | Neueste Meldungen
Ortszeit Temperatur Wetter
Fr, 22.06. 14:00 14.6° C bewölkt
Fr, 22.06. 8:00 10.6° C bewölkt
Fr, 22.06. 2:00 13.5° C bedeckt
Do, 21.06. 20:00 21.7° C bewölkt
Do, 21.06. 14:00 25.4° C leicht bewölkt
Do, 21.06. 8:00 19.5° C fast wolkenlos
Do, 21.06. 2:00 14.8° C wolkenlos
Mi, 20.06. 20:00 25.5° C wolkenlos
Ortszeit Temperatur Wetter
Fr, 22.06. 16:30 14.4° C bewölkt
Fr, 22.06. 16:20 14.4° C bewölkt
Fr, 22.06. 16:10 14.5° C bewölkt
Fr, 22.06. 16:00 14.6° C bedeckt
Fr, 22.06. 15:50 14.6° C bedeckt
Fr, 22.06. 15:40 15.0° C bewölkt
Fr, 22.06. 15:30 14.8° C bewölkt
Fr, 22.06. 15:00 14.9° C bewölkt
Fr, 22.06. 14:30 15.5° C wolkig
Fr, 22.06. 14:00 14.6° C bewölkt
Fr, 22.06. 13:30 14.8° C wolkig
Ortszeit Relative Feuchte Sichtweite
Fr, 22.06. 14:00 47% 28 km
Fr, 22.06. 8:00 61% 19 km
Fr, 22.06. 2:00 63% 35 km
Do, 21.06. 20:00 51% 35 km
Do, 21.06. 14:00 51% 22 km
Do, 21.06. 8:00 70% 22 km
Do, 21.06. 2:00 92% 13 km
Mi, 20.06. 20:00 45% 29 km
Ortszeit Relative Feuchte Sichtweite
Fr, 22.06. 16:30 49% 40 km
Fr, 22.06. 16:20 49% -
Fr, 22.06. 16:10 48% -
Fr, 22.06. 16:00 49% 40 km
Fr, 22.06. 15:50 49% -
Fr, 22.06. 15:40 47% -
Fr, 22.06. 15:30 46% 30 km
Fr, 22.06. 15:00 47% 22 km
Fr, 22.06. 14:30 48% 40 km
Fr, 22.06. 14:00 47% 28 km
Fr, 22.06. 13:30 43% 18 km
Ortszeit Niederschlagsmenge Niederschlagsart
Fr, 22.06. 14:00 0.0 l/m2 in 6 Std. -
Fr, 22.06. 8:00 0.9 l/m2 in 12 Std. -
Fr, 22.06. 2:00 0.9 l/m2 in 6 Std. Regen, Niederschlag
Do, 21.06. 20:00 0.1 l/m2 in 12 Std. -
Do, 21.06. 14:00 0.1 l/m2 in 6 Std. Niederschlag
Do, 21.06. 8:00 0.0 l/m2 in 12 Std. -
Do, 21.06. 2:00 0.0 l/m2 in 6 Std. -
Mi, 20.06. 20:00 0.1 l/m2 in 12 Std. Sprühregen, Niederschlag
Ortszeit Niederschlagsmenge Niederschlagsart
Fr, 22.06. 16:30 0.0 l/m2 in 1 Std. -
Fr, 22.06. 16:20 keine Meldung -
Fr, 22.06. 16:10 keine Meldung -
Fr, 22.06. 16:00 0.0 l/m2 in 1 Std. -
Fr, 22.06. 15:50 keine Meldung -
Fr, 22.06. 15:40 keine Meldung -
Fr, 22.06. 15:30 0.0 l/m2 in 1 Std. -
Fr, 22.06. 15:00 0.0 l/m2 in 1 Std. -
Fr, 22.06. 14:30 0.0 l/m2 in 1 Std. -
Fr, 22.06. 14:00 0.0 l/m2 in 1 Std. -
Fr, 22.06. 13:30 0.0 l/m2 in 1 Std. -
Ortszeit Stärke Spitze Richtung
km/h Bft. km/h Grad Sektor
Fr, 22.06. 14:00 14 3 32 290° W
Fr, 22.06. 8:00 9 2 20 310° NW
Fr, 22.06. 2:00 6 1 30 340° N
Do, 21.06. 20:00 11 2 40 320° NW
Do, 21.06. 14:00 15 3 33 270° W
Do, 21.06. 8:00 7 2 18 - -
Do, 21.06. 2:00 7 2 11 - -
Mi, 20.06. 20:00 7 2 22 - -
Ortszeit Stärke Spitze Richtung
km/h Bft. km/h Grad Sektor
Fr, 22.06. 16:30 11 2 22 310° NW
Fr, 22.06. 16:20 11 2 - 310° NW
Fr, 22.06. 16:10 11 2 - 310° NW
Fr, 22.06. 16:00 14 3 25 300° NW
Fr, 22.06. 15:50 14 3 - 300° NW
Fr, 22.06. 15:40 11 2 - 280° W
Fr, 22.06. 15:30 14 3 25 300° NW
Fr, 22.06. 15:00 15 3 28 280° W
Fr, 22.06. 14:30 9 2 28 270° W
Fr, 22.06. 14:00 14 3 29 290° W
Fr, 22.06. 13:30 18 3 29 290° W
Ortszeit Untergrenze Bedeckung Gattung
total tief tief mittel hoch
Fr, 22.06. 14:00 1440 m 7/8 7/8 - - -
Fr, 22.06. 8:00 1500 m 7/8 7/8 - - -
Fr, 22.06. 2:00 1350 m 8/8 8/8 - - -
Do, 21.06. 20:00 1500 m 7/8 7/8 - - -
Do, 21.06. 14:00 1350 m 4/8 4/8 - - -
Do, 21.06. 8:00 1500 m 1/8 1/8 - - -
Do, 21.06. 2:00 - 0/8 0/8 - - -
Mi, 20.06. 20:00 - 0/8 0/8 - - -
Ortszeit Bedeckungsgrad in Achtel und Wolkenuntergrenze
Fr, 22.06. 16:30 2(1440m) 6(1800m) 7(2100m)
Fr, 22.06. 16:20 2(1440m) 6(1800m) 7(2100m)
Fr, 22.06. 16:10 5(1500m) 7(1800m) 7(2400m)
Fr, 22.06. 16:00 1(1440m) 6(1800m) 8(2100m)
Fr, 22.06. 15:50 1(1440m) 6(1800m) 8(2100m)
Fr, 22.06. 15:40 5(1800m) 7(2100m)
Fr, 22.06. 15:30 2(1500m) 7(2100m)
Fr, 22.06. 15:00 3(1500m) 7(1800m)
Fr, 22.06. 14:30 4(1440m) 6(1800m)
Fr, 22.06. 14:00 5(1440m) 7(1800m)
Fr, 22.06. 13:30 5(1470m) 5(1500m)
Ortszeit Luftdruck NN (hPa) Tendenz (hPa in 3 Std.)
Fr, 22.06. 14:00 1023 + 0,3
Fr, 22.06. 8:00 1024 + 0,2
Fr, 22.06. 2:00 1022 + 2,5
Do, 21.06. 20:00 1014 + 0,7
Do, 21.06. 14:00 1013 - 0,8
Do, 21.06. 8:00 1016 0,0
Do, 21.06. 2:00 1019 - 0,9
Mi, 20.06. 20:00 1016 - 0,8
Ortszeit Luftdruck NN (hPa) Tendenz (hPa in 3 Std.)
Fr, 22.06. 16:30 1023 + 0,4
Fr, 22.06. 16:20 1023 keine Meldung
Fr, 22.06. 16:10 1023 keine Meldung
Fr, 22.06. 16:00 1023 + 0,2
Fr, 22.06. 15:50 1023 keine Meldung
Fr, 22.06. 15:40 1023 keine Meldung
Fr, 22.06. 15:30 1023 0,0
Fr, 22.06. 15:00 1023 - 0,2
Fr, 22.06. 14:30 1022 0,0
Fr, 22.06. 14:00 1023 + 0,3
Fr, 22.06. 13:30 1023 0,0
Ortszeit Schneehöhe (cm)
Fr, 22.06. 14:00 -
Fr, 22.06. 8:00 -
Fr, 22.06. 2:00 -
Do, 21.06. 20:00 -
Do, 21.06. 14:00 -
Do, 21.06. 8:00 -
Do, 21.06. 2:00 -
Mi, 20.06. 20:00 -
Ortszeit Schneehöhe (cm)
Fr, 22.06. 16:30 -
Fr, 22.06. 16:20 -
Fr, 22.06. 16:10 -
Fr, 22.06. 16:00 -
Fr, 22.06. 15:50 -
Fr, 22.06. 15:40 -
Fr, 22.06. 15:30 -
Fr, 22.06. 15:00 -
Fr, 22.06. 14:30 -
Fr, 22.06. 14:00 -
Fr, 22.06. 13:30 -
Link zu dieser Seite / Seite empfehlen

Das Wetter in ...